createdAt,value
2022-11-15T00:01:30.457Z,7.64
2022-11-15T00:04:21.977Z,7.52
2022-11-15T00:07:33.167Z,7.57
2022-11-15T00:10:23.763Z,7.59
2022-11-15T00:13:15.361Z,7.64
2022-11-15T00:16:09.928Z,7.55
2022-11-15T00:19:03.216Z,7.44
2022-11-15T00:21:54.323Z,7.39
2022-11-15T00:24:45.189Z,7.42
2022-11-15T00:27:36.445Z,7.45
2022-11-15T00:30:27.286Z,7.43
2022-11-15T00:33:18.206Z,7.35
2022-11-15T00:36:11.792Z,7.33
2022-11-15T00:39:03.251Z,7.29
2022-11-15T00:41:53.855Z,7.34
2022-11-15T00:44:44.756Z,7.31
2022-11-15T00:47:37.708Z,7.35
2022-11-15T00:50:28.966Z,7.33
2022-11-15T00:53:20.342Z,7.31
2022-11-15T00:56:11.411Z,7.27
2022-11-15T00:59:02.409Z,7.23
2022-11-15T01:01:53.359Z,7.31
2022-11-15T01:04:44.378Z,7.38
2022-11-15T01:07:35.668Z,7.38
2022-11-15T01:10:27.022Z,7.42
2022-11-15T01:13:17.732Z,7.34
2022-11-15T01:16:14.061Z,7.40
2022-11-15T01:19:05.153Z,7.39
2022-11-15T01:22:05.342Z,7.38
2022-11-15T01:25:00.148Z,7.38
2022-11-15T01:27:50.984Z,7.31
2022-11-15T01:30:43.840Z,7.28
2022-11-15T01:33:36.479Z,7.31
2022-11-15T01:36:27.887Z,7.24
2022-11-15T01:39:19.097Z,7.14
2022-11-15T01:42:14.074Z,7.16
2022-11-15T01:45:05.581Z,7.22
2022-11-15T01:47:58.297Z,7.23
2022-11-15T01:50:50.756Z,7.15
2022-11-15T01:53:43.994Z,7.12
2022-11-15T01:56:40.081Z,7.19
2022-11-15T01:59:32.191Z,7.17
2022-11-15T02:02:24.154Z,7.17
2022-11-15T02:05:15.322Z,7.17
2022-11-15T02:08:06.889Z,7.19
2022-11-15T02:10:59.947Z,7.15
2022-11-15T02:13:51.207Z,7.19
2022-11-15T02:16:51.202Z,7.24
2022-11-15T02:20:08.761Z,7.18
2022-11-15T02:23:18.078Z,7.14
2022-11-15T02:26:32.022Z,7.07
2022-11-15T02:29:37.377Z,7.04
2022-11-15T02:32:39.175Z,6.95
2022-11-15T02:35:39.629Z,6.98
2022-11-15T02:38:39.694Z,7.08
2022-11-15T02:41:41.524Z,7.04
2022-11-15T02:44:39.575Z,7.02
2022-11-15T02:47:33.158Z,6.95
2022-11-15T02:50:27.598Z,7.05
2022-11-15T02:53:19.399Z,7.06
2022-11-15T02:56:14.047Z,7.13
2022-11-15T02:59:43.925Z,7.14
2022-11-15T03:02:50.207Z,7.15
2022-11-15T03:05:53.779Z,7.00
2022-11-15T03:08:59.154Z,7.00
2022-11-15T03:11:56.353Z,7.14
2022-11-15T03:15:17.681Z,7.15
2022-11-15T03:18:18.905Z,7.16
2022-11-15T03:21:15.519Z,7.04
2022-11-15T03:24:08.748Z,7.16
2022-11-15T03:27:01.474Z,7.21
2022-11-15T03:30:20.960Z,7.22
2022-11-15T03:33:15.530Z,7.26
2022-11-15T03:36:07.219Z,7.16
2022-11-15T03:39:03.694Z,7.15
2022-11-15T03:42:07.321Z,7.23
2022-11-15T03:45:06.093Z,7.34
2022-11-15T03:48:01.525Z,7.33
2022-11-15T03:50:53.008Z,7.26
2022-11-15T03:53:44.741Z,7.29
2022-11-15T03:56:36.122Z,7.28
2022-11-15T03:59:26.961Z,7.27
2022-11-15T04:02:18.674Z,7.31
2022-11-15T04:05:10.216Z,7.32
2022-11-15T04:08:00.966Z,7.26
2022-11-15T04:10:54.778Z,7.35
2022-11-15T04:13:46.570Z,7.44
2022-11-15T04:16:43.590Z,7.51
2022-11-15T04:19:55.939Z,7.52
2022-11-15T04:23:04.686Z,7.45
2022-11-15T04:25:57.829Z,7.54
2022-11-15T04:29:02.794Z,7.49
2022-11-15T04:31:54.026Z,7.46
2022-11-15T04:34:45.031Z,7.53
2022-11-15T04:37:36.201Z,7.50
2022-11-15T04:40:29.937Z,7.45
2022-11-15T04:43:22.849Z,7.43
2022-11-15T04:46:13.943Z,7.50
2022-11-15T04:49:04.524Z,7.45
2022-11-15T04:51:55.377Z,7.43
2022-11-15T04:54:46.411Z,7.41
2022-11-15T04:57:37.374Z,7.45
2022-11-15T05:00:28.780Z,7.47
2022-11-15T05:03:37.487Z,7.47
2022-11-15T05:06:28.278Z,7.42
2022-11-15T05:09:20.152Z,7.43
2022-11-15T05:12:13.577Z,7.45
2022-11-15T05:15:05.994Z,7.47
2022-11-15T05:18:01.622Z,7.45
2022-11-15T05:20:52.519Z,7.48
2022-11-15T05:23:43.189Z,7.51
2022-11-15T05:26:34.387Z,7.56
2022-11-15T05:29:25.269Z,7.54
2022-11-15T05:32:16.375Z,7.59
2022-11-15T05:35:14.655Z,7.57
2022-11-15T05:38:09.560Z,7.61
2022-11-15T05:41:01.806Z,7.64
2022-11-15T05:44:23.563Z,7.67
2022-11-15T05:47:29.963Z,7.62
2022-11-15T05:50:22.390Z,7.64
2022-11-15T05:53:16.762Z,7.65
2022-11-15T05:56:08.867Z,7.69
2022-11-15T05:59:01.114Z,7.70
2022-11-15T06:01:54.792Z,7.76
2022-11-15T06:04:45.752Z,7.74
2022-11-15T06:07:37.736Z,7.76
2022-11-15T06:10:29.992Z,7.83
2022-11-15T06:13:21.152Z,7.75
2022-11-15T06:16:12.490Z,7.71
2022-11-15T06:19:06.647Z,7.72
2022-11-15T06:21:57.825Z,7.71
2022-11-15T06:24:49.134Z,7.74
2022-11-15T06:27:42.496Z,7.78
2022-11-15T06:30:33.447Z,7.79
2022-11-15T06:33:24.737Z,7.76
2022-11-15T06:36:18.241Z,7.77
2022-11-15T06:39:11.992Z,7.75
2022-11-15T06:42:02.634Z,7.80
2022-11-15T06:44:55.673Z,7.75
2022-11-15T06:47:49.680Z,7.74
2022-11-15T06:50:41.027Z,7.80
2022-11-15T06:53:35.482Z,7.80
2022-11-15T06:56:26.388Z,7.79
2022-11-15T06:59:17.344Z,7.73
2022-11-15T07:02:08.126Z,7.75
2022-11-15T07:04:59.222Z,7.69
2022-11-15T07:07:57.239Z,7.69
2022-11-15T07:10:48.156Z,7.66
2022-11-15T07:13:40.029Z,7.70
2022-11-15T07:16:30.768Z,7.78
2022-11-15T07:19:21.739Z,7.78
2022-11-15T07:22:12.348Z,7.82
2022-11-15T07:25:03.040Z,7.89
2022-11-15T07:27:59.730Z,7.94
2022-11-15T07:30:50.606Z,7.89
2022-11-15T07:33:41.271Z,7.78
2022-11-15T07:36:32.377Z,7.76
2022-11-15T07:39:23.363Z,7.75
2022-11-15T07:42:32.014Z,7.83
2022-11-15T07:45:23.305Z,7.82
2022-11-15T07:48:17.964Z,7.86
2022-11-15T07:51:13.874Z,7.88
2022-11-15T07:54:05.599Z,7.88
2022-11-15T07:56:57.888Z,7.95
2022-11-15T07:59:51.423Z,7.96
2022-11-15T08:02:42.932Z,8.00
2022-11-15T08:05:34.027Z,7.99
2022-11-15T08:08:25.060Z,8.03
2022-11-15T08:11:15.969Z,7.99
2022-11-15T08:14:46.325Z,7.91
2022-11-15T08:17:37.412Z,7.92
2022-11-15T08:20:31.143Z,7.99
2022-11-15T08:23:21.820Z,7.91
2022-11-15T08:26:13.410Z,7.94
2022-11-15T08:29:04.383Z,8.00
2022-11-15T08:31:58.514Z,8.09
2022-11-15T08:35:18.474Z,8.17
2022-11-15T08:38:16.426Z,8.18
2022-11-15T08:41:08.202Z,8.18
2022-11-15T08:43:59.232Z,8.12
2022-11-15T08:46:50.649Z,8.09
2022-11-15T08:49:43.773Z,8.07
2022-11-15T08:52:34.692Z,8.14
2022-11-15T08:55:25.855Z,8.19
2022-11-15T08:58:16.565Z,8.24
2022-11-15T09:01:08.146Z,8.17
2022-11-15T09:03:59.539Z,8.24
2022-11-15T09:06:50.517Z,8.23
2022-11-15T09:09:46.540Z,8.13
2022-11-15T09:12:38.156Z,8.10
2022-11-15T09:15:28.998Z,8.11
2022-11-15T09:18:22.390Z,8.12
2022-11-15T09:21:13.822Z,8.14
2022-11-15T09:24:05.332Z,8.13
2022-11-15T09:26:56.133Z,8.12
2022-11-15T09:29:49.962Z,8.18
2022-11-15T09:32:40.702Z,8.26
2022-11-15T09:35:31.504Z,8.30
2022-11-15T09:38:22.577Z,8.23
2022-11-15T09:41:40.198Z,8.24
2022-11-15T09:44:47.763Z,8.26
2022-11-15T09:48:11.743Z,8.33
2022-11-15T09:51:14.092Z,8.28
2022-11-15T09:56:47.392Z,8.35
2022-11-15T09:59:40.590Z,8.37
2022-11-15T10:02:26.033Z,8.38
2022-11-15T10:05:00.060Z,8.34
2022-11-15T10:07:42.798Z,8.26
2022-11-15T10:10:24.946Z,8.20
2022-11-15T10:12:57.573Z,8.25
2022-11-15T10:15:30.025Z,8.24
2022-11-15T10:18:23.445Z,8.23
2022-11-15T10:21:01.290Z,8.17
2022-11-15T10:23:34.286Z,8.11
2022-11-15T10:26:13.637Z,8.05
2022-11-15T10:28:46.330Z,8.04
2022-11-15T10:31:27.521Z,8.12
2022-11-15T10:34:12.643Z,8.15
2022-11-15T10:36:56.121Z,8.19
2022-11-15T10:39:28.928Z,8.25
2022-11-15T10:42:18.015Z,8.26
2022-11-15T10:44:50.438Z,8.32
2022-11-15T10:47:38.826Z,8.28
2022-11-15T10:50:33.165Z,8.25
2022-11-15T10:53:06.430Z,8.32
2022-11-15T10:55:39.398Z,8.26
2022-11-15T10:58:29.414Z,8.24
2022-11-15T11:01:13.174Z,8.19
2022-11-15T11:03:47.277Z,8.28
2022-11-15T11:06:23.624Z,8.34
2022-11-15T11:09:01.040Z,8.40
2022-11-15T11:11:52.034Z,8.40
2022-11-15T11:14:30.599Z,8.28
2022-11-15T11:17:11.439Z,8.22
2022-11-15T11:20:02.846Z,8.21
2022-11-15T11:22:47.032Z,8.32
2022-11-15T11:25:30.574Z,8.41
2022-11-15T11:28:19.716Z,8.47
2022-11-15T11:31:04.812Z,8.51
2022-11-15T11:33:44.223Z,8.51
2022-11-15T11:36:28.876Z,8.37
2022-11-15T11:39:21.461Z,8.32
2022-11-15T11:42:14.835Z,8.45
2022-11-15T11:45:01.292Z,8.45
2022-11-15T11:47:40.137Z,8.43
2022-11-15T11:50:20.827Z,8.47
2022-11-15T11:53:04.316Z,8.46
2022-11-15T11:55:40.174Z,8.41
2022-11-15T11:58:20.836Z,8.47
2022-11-15T12:00:57.729Z,8.51
2022-11-15T12:03:40.256Z,8.52
2022-11-15T12:06:26.935Z,8.52
2022-11-15T12:09:03.374Z,8.53
2022-11-15T12:11:44.204Z,8.53
2022-11-15T12:14:30.330Z,8.43
2022-11-15T12:17:05.366Z,8.30
2022-11-15T12:19:40.858Z,8.36
2022-11-15T12:22:22.227Z,8.45
2022-11-15T12:24:59.713Z,8.45
2022-11-15T12:27:39.109Z,8.43
2022-11-15T12:30:17.307Z,8.35
2022-11-15T12:32:57.949Z,8.34
2022-11-15T12:35:38.298Z,8.39
2022-11-15T12:38:36.498Z,8.39
2022-11-15T12:41:27.212Z,8.28
2022-11-15T12:44:00.275Z,8.29
2022-11-15T12:47:04.567Z,8.35
2022-11-15T12:49:50.320Z,8.37
2022-11-15T12:52:23.393Z,8.38
2022-11-15T12:55:04.185Z,8.32
2022-11-15T12:57:46.263Z,8.34
2022-11-15T13:00:48.131Z,8.29
2022-11-15T13:03:37.170Z,8.31
2022-11-15T13:06:44.950Z,8.28
2022-11-15T13:10:00.305Z,8.24
2022-11-15T13:12:53.184Z,8.18
2022-11-15T13:15:58.975Z,8.23
2022-11-15T13:18:45.077Z,8.20
2022-11-15T13:21:44.155Z,8.24
2022-11-15T13:24:21.161Z,8.28
2022-11-15T13:26:53.309Z,8.32
2022-11-15T13:29:25.590Z,8.34
2022-11-15T13:31:57.938Z,8.40
2022-11-15T13:37:36.768Z,8.51
2022-11-15T13:40:25.993Z,8.60
2022-11-15T13:42:58.767Z,8.58
2022-11-15T13:45:32.349Z,8.59
2022-11-15T13:48:08.137Z,8.60
2022-11-15T13:50:42.196Z,8.61
2022-11-15T13:53:15.653Z,8.55
2022-11-15T13:55:47.759Z,8.42
2022-11-15T13:58:24.131Z,8.18
2022-11-15T14:01:07.300Z,8.06
2022-11-15T14:03:49.574Z,8.12
2022-11-15T14:06:24.582Z,8.21
2022-11-15T14:09:21.867Z,8.28
2022-11-15T14:11:56.222Z,8.19
2022-11-15T14:14:30.491Z,8.06
2022-11-15T14:17:03.511Z,7.92
2022-11-15T14:19:42.008Z,7.82
2022-11-15T14:22:22.125Z,7.77
2022-11-15T14:25:15.188Z,7.75
2022-11-15T14:28:08.035Z,7.76
2022-11-15T14:30:40.922Z,7.83
2022-11-15T14:33:33.654Z,7.92
2022-11-15T14:36:13.038Z,7.94
2022-11-15T14:38:46.299Z,7.97
2022-11-15T14:41:27.404Z,7.99
2022-11-15T14:43:59.711Z,8.06
2022-11-15T14:46:32.068Z,8.05
2022-11-15T14:49:04.313Z,8.04
2022-11-15T14:51:36.529Z,8.09
2022-11-15T14:54:10.443Z,8.13
2022-11-15T14:56:43.864Z,8.16
2022-11-15T14:59:16.231Z,8.10
2022-11-15T15:01:48.553Z,8.13
2022-11-15T15:04:21.995Z,8.13
2022-11-15T15:06:56.655Z,8.09
2022-11-15T15:09:28.841Z,8.13
2022-11-15T15:12:05.910Z,8.13
2022-11-15T15:14:38.761Z,8.19
2022-11-15T15:17:11.219Z,8.24
2022-11-15T15:19:43.545Z,8.24
2022-11-15T15:22:19.927Z,8.19
2022-11-15T15:24:52.141Z,8.15
2022-11-15T15:27:24.382Z,8.10
2022-11-15T15:29:56.476Z,8.11
2022-11-15T15:32:28.738Z,8.15
2022-11-15T15:35:01.135Z,8.16
2022-11-15T15:37:35.032Z,8.23
2022-11-15T15:40:14.252Z,8.30
2022-11-15T15:42:46.569Z,8.35
2022-11-15T15:45:19.932Z,8.39
2022-11-15T15:47:53.201Z,8.41
2022-11-15T15:50:27.605Z,8.44
2022-11-15T15:53:02.899Z,8.44
2022-11-15T15:55:35.931Z,8.31
2022-11-15T15:58:09.261Z,8.18
2022-11-15T16:00:41.893Z,8.24
2022-11-15T16:03:14.091Z,8.26
2022-11-15T16:05:46.520Z,8.27
2022-11-15T16:08:23.577Z,8.29
2022-11-15T16:10:55.738Z,8.31
2022-11-15T16:13:29.901Z,8.35
2022-11-15T16:16:02.366Z,8.38
2022-11-15T16:18:35.677Z,8.37
2022-11-15T16:21:09.839Z,8.42
2022-11-15T16:23:44.516Z,8.47
2022-11-15T16:26:23.395Z,8.44
2022-11-15T16:28:56.006Z,8.41
2022-11-15T16:31:28.352Z,8.38
2022-11-15T16:34:00.580Z,8.39
2022-11-15T16:36:36.594Z,8.38
2022-11-15T16:39:10.789Z,8.44
2022-11-15T16:41:44.248Z,8.46
2022-11-15T16:44:16.752Z,8.48
2022-11-15T16:46:52.055Z,8.46
2022-11-15T16:49:24.805Z,8.46
2022-11-15T16:51:56.977Z,8.48
2022-11-15T16:54:29.117Z,8.51
2022-11-15T16:57:01.317Z,8.53
2022-11-15T16:59:38.129Z,8.53
2022-11-15T17:02:15.353Z,8.56
2022-11-15T17:04:47.900Z,8.52
2022-11-15T17:07:20.148Z,8.50
2022-11-15T17:09:55.118Z,8.55
2022-11-15T17:12:27.407Z,8.54
2022-11-15T17:14:59.567Z,8.48
2022-11-15T17:17:31.768Z,8.53
2022-11-15T17:20:05.145Z,8.56
2022-11-15T17:22:38.908Z,8.50
2022-11-15T17:25:12.364Z,8.48
2022-11-15T17:27:46.264Z,8.52
2022-11-15T17:30:20.477Z,8.55
2022-11-15T17:32:52.595Z,8.59
2022-11-15T17:35:24.697Z,8.59
2022-11-15T17:37:56.812Z,8.56
2022-11-15T17:40:28.969Z,8.60
2022-11-15T17:43:01.165Z,8.69
2022-11-15T17:45:33.397Z,8.71
2022-11-15T17:48:05.704Z,8.70
2022-11-15T17:50:38.177Z,8.67
2022-11-15T17:53:10.919Z,8.67
2022-11-15T17:55:43.259Z,8.67
2022-11-15T17:58:18.859Z,8.68
2022-11-15T18:00:51.523Z,8.68
2022-11-15T18:03:24.165Z,8.68
2022-11-15T18:05:56.426Z,8.65
2022-11-15T18:08:29.156Z,8.65
2022-11-15T18:11:11.253Z,8.65
2022-11-15T18:13:50.943Z,8.63
2022-11-15T18:16:27.402Z,8.54
2022-11-15T18:19:00.584Z,8.54
2022-11-15T18:21:34.807Z,8.59
2022-11-15T18:24:07.912Z,8.60
2022-11-15T18:26:39.978Z,8.62
2022-11-15T18:29:12.605Z,8.62
2022-11-15T18:31:47.669Z,8.58
2022-11-15T18:34:20.297Z,8.55
2022-11-15T18:36:54.448Z,8.56
2022-11-15T18:39:26.593Z,8.55
2022-11-15T18:41:58.737Z,8.55
2022-11-15T18:44:35.445Z,8.54
2022-11-15T18:47:12.119Z,8.53
2022-11-15T18:49:44.231Z,8.52
2022-11-15T18:52:16.431Z,8.46
2022-11-15T18:54:48.573Z,8.28
2022-11-15T18:57:20.824Z,8.24
2022-11-15T18:59:52.925Z,8.28
2022-11-15T19:02:24.998Z,8.37
2022-11-15T19:04:57.329Z,8.36
2022-11-15T19:07:29.602Z,8.31
2022-11-15T19:10:01.975Z,8.28
2022-11-15T19:12:34.376Z,8.28
2022-11-15T19:15:10.252Z,8.26
2022-11-15T19:17:42.763Z,8.33
2022-11-15T19:20:15.191Z,8.34
2022-11-15T19:22:50.989Z,8.32
2022-11-15T19:25:28.794Z,8.24
2022-11-15T19:28:00.980Z,8.14
2022-11-15T19:30:37.167Z,8.10
2022-11-15T19:33:09.712Z,8.11
2022-11-15T19:35:45.450Z,8.16
2022-11-15T19:38:17.929Z,8.19
2022-11-15T19:43:36.362Z,8.19
2022-11-15T19:46:11.679Z,8.22
2022-11-15T19:48:44.624Z,8.13
2022-11-15T19:51:19.784Z,8.07
2022-11-15T19:54:02.434Z,8.05
2022-11-15T19:56:35.932Z,8.03
2022-11-15T19:59:08.305Z,7.97
2022-11-15T20:01:40.808Z,7.99
2022-11-15T20:04:34.776Z,8.02
2022-11-15T20:07:07.018Z,7.98
2022-11-15T20:09:39.675Z,8.02
2022-11-15T20:12:12.205Z,8.03
2022-11-15T20:14:46.017Z,8.03
2022-11-15T20:17:19.189Z,7.95
2022-11-15T20:19:52.365Z,7.92
2022-11-15T20:22:24.773Z,7.94
2022-11-15T20:24:57.206Z,7.96
2022-11-15T20:27:54.873Z,7.99
2022-11-15T20:30:27.277Z,7.96
2022-11-15T20:32:59.727Z,7.94
2022-11-15T20:35:47.192Z,7.93
2022-11-15T20:38:20.585Z,7.92
2022-11-15T20:40:57.565Z,7.92
2022-11-15T20:43:32.206Z,7.89
2022-11-15T20:46:04.398Z,7.85
2022-11-15T20:48:36.767Z,7.79
2022-11-15T20:51:12.473Z,7.77
2022-11-15T20:53:45.794Z,7.73
2022-11-15T20:56:19.489Z,7.73
2022-11-15T20:58:53.468Z,7.77
2022-11-15T21:01:26.045Z,7.76
2022-11-15T21:04:00.553Z,7.81
2022-11-15T21:06:36.266Z,7.89
2022-11-15T21:09:26.104Z,7.87
2022-11-15T21:12:13.711Z,7.75
2022-11-15T21:14:48.260Z,7.69
2022-11-15T21:17:21.597Z,7.63
2022-11-15T21:19:53.972Z,7.62
2022-11-15T21:22:28.489Z,7.67
2022-11-15T21:25:30.033Z,7.61
2022-11-15T21:28:10.141Z,7.54
2022-11-15T21:30:42.569Z,7.57
2022-11-15T21:33:14.917Z,7.62
2022-11-15T21:35:49.185Z,7.61
2022-11-15T21:38:23.505Z,7.61
2022-11-15T21:41:05.244Z,7.58
2022-11-15T21:43:37.368Z,7.56
2022-11-15T21:46:10.545Z,7.55
2022-11-15T21:48:42.685Z,7.56
2022-11-15T21:51:19.011Z,7.52
2022-11-15T21:53:51.463Z,7.49
2022-11-15T21:56:23.660Z,7.56
2022-11-15T21:58:56.379Z,7.58
2022-11-15T22:01:47.413Z,7.55
2022-11-15T22:04:21.592Z,7.47
2022-11-15T22:06:54.183Z,7.48
2022-11-15T22:09:26.372Z,7.51
2022-11-15T22:12:09.019Z,7.53
2022-11-15T22:14:41.244Z,7.51
2022-11-15T22:17:15.837Z,7.47
2022-11-15T22:19:52.829Z,7.43
2022-11-15T22:22:25.625Z,7.45
2022-11-15T22:24:58.291Z,7.43
2022-11-15T22:27:30.549Z,7.46
2022-11-15T22:30:02.738Z,7.50
2022-11-15T22:32:34.924Z,7.51
2022-11-15T22:35:07.785Z,7.49
2022-11-15T22:37:39.998Z,7.50
2022-11-15T22:40:13.557Z,7.47
2022-11-15T22:42:45.747Z,7.40
2022-11-15T22:45:18.416Z,7.37
2022-11-15T22:47:50.719Z,7.38
2022-11-15T22:50:23.240Z,7.44
2022-11-15T22:52:55.580Z,7.41
2022-11-15T22:55:27.747Z,7.45
2022-11-15T22:57:59.945Z,7.53
2022-11-15T23:00:34.361Z,7.57
2022-11-15T23:03:06.864Z,7.54
2022-11-15T23:05:47.135Z,7.60
2022-11-15T23:08:20.309Z,7.57
2022-11-15T23:11:10.200Z,7.59
2022-11-15T23:13:42.464Z,7.61
2022-11-15T23:16:23.912Z,7.56
2022-11-15T23:19:00.561Z,7.55
2022-11-15T23:21:54.500Z,7.54
2022-11-15T23:24:27.480Z,7.49
2022-11-15T23:27:02.963Z,7.45
2022-11-15T23:29:55.314Z,7.46
2022-11-15T23:32:45.062Z,7.48
2022-11-15T23:35:18.006Z,7.44
2022-11-15T23:37:50.222Z,7.41
2022-11-15T23:40:22.343Z,7.43
2022-11-15T23:42:55.352Z,7.44
2022-11-15T23:45:28.060Z,7.43
2022-11-15T23:48:19.248Z,7.43
2022-11-15T23:50:51.771Z,7.36
2022-11-15T23:53:24.035Z,7.37
2022-11-15T23:56:02.683Z,7.37
2022-11-15T23:58:35.348Z,7.45
